sensor_id;sensor_type;location;lat;lon;timestamp;temperature;humidity
76936;DHT22;65881;52.438;16.744;2023-02-10T00:01:07;-2.00;71.80
76936;DHT22;65881;52.438;16.744;2023-02-10T00:03:34;-2.00;71.90
76936;DHT22;65881;52.438;16.744;2023-02-10T00:06:00;-2.00;72.00
76936;DHT22;65881;52.438;16.744;2023-02-10T00:08:26;-2.00;71.90
76936;DHT22;65881;52.438;16.744;2023-02-10T00:10:57;-2.10;72.10
76936;DHT22;65881;52.438;16.744;2023-02-10T00:13:24;-2.10;72.30
76936;DHT22;65881;52.438;16.744;2023-02-10T00:15:50;-2.10;72.50
76936;DHT22;65881;52.438;16.744;2023-02-10T00:18:16;-2.10;72.50
76936;DHT22;65881;52.438;16.744;2023-02-10T00:20:41;-2.10;72.60
76936;DHT22;65881;52.438;16.744;2023-02-10T00:23:07;-2.20;72.80
76936;DHT22;65881;52.438;16.744;2023-02-10T00:25:35;-2.20;72.80
76936;DHT22;65881;52.438;16.744;2023-02-10T00:28:01;-2.20;73.20
76936;DHT22;65881;52.438;16.744;2023-02-10T00:30:27;-2.20;73.00
76936;DHT22;65881;52.438;16.744;2023-02-10T00:32:52;-2.20;73.20
76936;DHT22;65881;52.438;16.744;2023-02-10T00:35:18;-2.20;73.40
76936;DHT22;65881;52.438;16.744;2023-02-10T00:37:44;-2.30;73.60
76936;DHT22;65881;52.438;16.744;2023-02-10T00:40:10;-2.30;73.50
76936;DHT22;65881;52.438;16.744;2023-02-10T00:42:35;-2.30;73.50
76936;DHT22;65881;52.438;16.744;2023-02-10T00:45:01;-2.30;73.50
76936;DHT22;65881;52.438;16.744;2023-02-10T00:47:27;-2.30;73.70
76936;DHT22;65881;52.438;16.744;2023-02-10T00:49:52;-2.30;73.60
76936;DHT22;65881;52.438;16.744;2023-02-10T00:52:18;-2.30;73.50
76936;DHT22;65881;52.438;16.744;2023-02-10T00:54:44;-2.30;73.50
76936;DHT22;65881;52.438;16.744;2023-02-10T00:57:10;-2.20;73.60
76936;DHT22;65881;52.438;16.744;2023-02-10T00:59:36;-2.30;73.70
76936;DHT22;65881;52.438;16.744;2023-02-10T01:02:09;-2.30;73.90
76936;DHT22;65881;52.438;16.744;2023-02-10T01:04:35;-2.30;73.80
76936;DHT22;65881;52.438;16.744;2023-02-10T01:07:01;-2.20;73.90
76936;DHT22;65881;52.438;16.744;2023-02-10T01:09:27;-2.20;73.90
76936;DHT22;65881;52.438;16.744;2023-02-10T01:11:53;-2.10;73.90
76936;DHT22;65881;52.438;16.744;2023-02-10T01:14:18;-2.10;73.90
76936;DHT22;65881;52.438;16.744;2023-02-10T01:16:44;-2.10;73.90
76936;DHT22;65881;52.438;16.744;2023-02-10T01:19:10;-2.10;73.30
76936;DHT22;65881;52.438;16.744;2023-02-10T01:21:36;-2.00;73.10
76936;DHT22;65881;52.438;16.744;2023-02-10T01:24:05;-2.00;73.40
76936;DHT22;65881;52.438;16.744;2023-02-10T01:26:31;-2.00;73.60
76936;DHT22;65881;52.438;16.744;2023-02-10T01:28:57;-2.00;73.70
76936;DHT22;65881;52.438;16.744;2023-02-10T01:31:24;-2.00;73.60
76936;DHT22;65881;52.438;16.744;2023-02-10T01:33:54;-1.90;73.30
76936;DHT22;65881;52.438;16.744;2023-02-10T01:36:22;-1.90;73.60
76936;DHT22;65881;52.438;16.744;2023-02-10T01:38:49;-1.90;73.40
76936;DHT22;65881;52.438;16.744;2023-02-10T01:41:18;-1.80;73.30
76936;DHT22;65881;52.438;16.744;2023-02-10T01:44:04;-1.80;72.70
76936;DHT22;65881;52.438;16.744;2023-02-10T01:46:34;-1.70;72.50
76936;DHT22;65881;52.438;16.744;2023-02-10T01:49:06;-1.70;72.50
76936;DHT22;65881;52.438;16.744;2023-02-10T01:51:38;-1.70;72.60
76936;DHT22;65881;52.438;16.744;2023-02-10T01:54:08;-1.60;72.30
76936;DHT22;65881;52.438;16.744;2023-02-10T01:56:38;-1.60;72.30
76936;DHT22;65881;52.438;16.744;2023-02-10T01:59:05;-1.60;72.10
76936;DHT22;65881;52.438;16.744;2023-02-10T02:01:31;-1.60;72.20
76936;DHT22;65881;52.438;16.744;2023-02-10T02:03:58;-1.60;72.20
76936;DHT22;65881;52.438;16.744;2023-02-10T02:06:24;-1.60;72.10
76936;DHT22;65881;52.438;16.744;2023-02-10T02:08:49;-1.50;72.50
76936;DHT22;65881;52.438;16.744;2023-02-10T02:19:50;-1.50;72.10
76936;DHT22;65881;52.438;16.744;2023-02-10T02:36:28;-1.50;72.60
76936;DHT22;65881;52.438;16.744;2023-02-10T02:39:03;-1.50;72.70
76936;DHT22;65881;52.438;16.744;2023-02-10T02:41:30;-1.50;72.80
76936;DHT22;65881;52.438;16.744;2023-02-10T02:43:57;-1.50;73.00
76936;DHT22;65881;52.438;16.744;2023-02-10T02:46:30;-1.50;73.20
76936;DHT22;65881;52.438;16.744;2023-02-10T02:51:48;-1.50;73.60
76936;DHT22;65881;52.438;16.744;2023-02-10T02:54:24;-1.50;73.70
76936;DHT22;65881;52.438;16.744;2023-02-10T02:59:59;-1.40;73.90
76936;DHT22;65881;52.438;16.744;2023-02-10T03:02:28;-1.40;73.80
76936;DHT22;65881;52.438;16.744;2023-02-10T03:04:55;-1.30;73.70
76936;DHT22;65881;52.438;16.744;2023-02-10T03:07:21;-1.30;73.60
76936;DHT22;65881;52.438;16.744;2023-02-10T03:09:47;-1.30;73.90
76936;DHT22;65881;52.438;16.744;2023-02-10T03:12:12;-1.30;74.30
76936;DHT22;65881;52.438;16.744;2023-02-10T03:14:38;-1.30;74.00
76936;DHT22;65881;52.438;16.744;2023-02-10T03:17:04;-1.30;74.10
76936;DHT22;65881;52.438;16.744;2023-02-10T03:19:30;-1.30;74.20
76936;DHT22;65881;52.438;16.744;2023-02-10T03:21:56;-1.30;74.30
76936;DHT22;65881;52.438;16.744;2023-02-10T03:24:21;-1.30;74.70
76936;DHT22;65881;52.438;16.744;2023-02-10T03:26:47;-1.20;74.50
76936;DHT22;65881;52.438;16.744;2023-02-10T03:29:14;-1.30;74.70
76936;DHT22;65881;52.438;16.744;2023-02-10T03:31:40;-1.20;74.60
76936;DHT22;65881;52.438;16.744;2023-02-10T03:34:06;-1.30;74.90
76936;DHT22;65881;52.438;16.744;2023-02-10T03:36:32;-1.30;75.10
76936;DHT22;65881;52.438;16.744;2023-02-10T03:39:01;-1.30;75.10
76936;DHT22;65881;52.438;16.744;2023-02-10T03:41:28;-1.30;75.40
76936;DHT22;65881;52.438;16.744;2023-02-10T03:43:54;-1.30;75.70
76936;DHT22;65881;52.438;16.744;2023-02-10T03:46:19;-1.30;76.10
76936;DHT22;65881;52.438;16.744;2023-02-10T03:48:46;-1.30;76.40
76936;DHT22;65881;52.438;16.744;2023-02-10T03:51:13;-1.30;76.70
76936;DHT22;65881;52.438;16.744;2023-02-10T03:53:39;-1.30;76.60
76936;DHT22;65881;52.438;16.744;2023-02-10T03:56:05;-1.50;77.00
76936;DHT22;65881;52.438;16.744;2023-02-10T03:58:32;-1.50;77.20
76936;DHT22;65881;52.438;16.744;2023-02-10T04:00:57;-1.60;77.60
76936;DHT22;65881;52.438;16.744;2023-02-10T04:03:23;-1.60;77.80
76936;DHT22;65881;52.438;16.744;2023-02-10T04:05:49;-1.70;78.40
76936;DHT22;65881;52.438;16.744;2023-02-10T04:08:15;-1.70;78.60
76936;DHT22;65881;52.438;16.744;2023-02-10T04:10:40;-1.70;78.70
76936;DHT22;65881;52.438;16.744;2023-02-10T04:13:06;-1.80;79.00
76936;DHT22;65881;52.438;16.744;2023-02-10T04:15:32;-1.80;79.40
76936;DHT22;65881;52.438;16.744;2023-02-10T04:17:57;-1.80;79.40
76936;DHT22;65881;52.438;16.744;2023-02-10T04:20:24;-1.80;79.70
76936;DHT22;65881;52.438;16.744;2023-02-10T04:22:49;-1.80;79.80
76936;DHT22;65881;52.438;16.744;2023-02-10T04:25:15;-1.70;79.70
76936;DHT22;65881;52.438;16.744;2023-02-10T04:27:41;-1.70;79.60
76936;DHT22;65881;52.438;16.744;2023-02-10T04:30:07;-1.60;79.70
76936;DHT22;65881;52.438;16.744;2023-02-10T04:32:33;-1.60;79.70
76936;DHT22;65881;52.438;16.744;2023-02-10T04:34:59;-1.60;79.70
76936;DHT22;65881;52.438;16.744;2023-02-10T04:37:25;-1.60;80.00
76936;DHT22;65881;52.438;16.744;2023-02-10T04:39:50;-1.70;80.10
76936;DHT22;65881;52.438;16.744;2023-02-10T04:42:16;-1.70;80.30
76936;DHT22;65881;52.438;16.744;2023-02-10T04:44:42;-1.70;80.30
76936;DHT22;65881;52.438;16.744;2023-02-10T04:47:07;-1.80;80.50
76936;DHT22;65881;52.438;16.744;2023-02-10T04:49:33;-1.80;80.90
76936;DHT22;65881;52.438;16.744;2023-02-10T04:51:59;-1.80;81.30
76936;DHT22;65881;52.438;16.744;2023-02-10T04:54:24;-1.80;81.40
76936;DHT22;65881;52.438;16.744;2023-02-10T04:56:50;-1.80;81.80
76936;DHT22;65881;52.438;16.744;2023-02-10T04:59:16;-1.80;82.00
76936;DHT22;65881;52.438;16.744;2023-02-10T05:01:42;-1.80;82.20
76936;DHT22;65881;52.438;16.744;2023-02-10T05:04:07;-1.80;82.20
76936;DHT22;65881;52.438;16.744;2023-02-10T05:06:33;-1.80;82.30
76936;DHT22;65881;52.438;16.744;2023-02-10T05:08:59;-1.80;82.60
76936;DHT22;65881;52.438;16.744;2023-02-10T05:11:25;-1.80;82.50
76936;DHT22;65881;52.438;16.744;2023-02-10T05:13:50;-1.70;82.60
76936;DHT22;65881;52.438;16.744;2023-02-10T05:16:16;-1.70;82.50
76936;DHT22;65881;52.438;16.744;2023-02-10T05:18:42;-1.70;82.50
76936;DHT22;65881;52.438;16.744;2023-02-10T05:21:10;-1.70;82.50
76936;DHT22;65881;52.438;16.744;2023-02-10T05:23:37;-1.70;82.60
76936;DHT22;65881;52.438;16.744;2023-02-10T05:26:03;-1.60;82.40
76936;DHT22;65881;52.438;16.744;2023-02-10T05:28:29;-1.60;82.50
76936;DHT22;65881;52.438;16.744;2023-02-10T05:30:55;-1.70;82.50
76936;DHT22;65881;52.438;16.744;2023-02-10T05:33:21;-1.70;82.50
76936;DHT22;65881;52.438;16.744;2023-02-10T05:35:46;-1.70;82.40
76936;DHT22;65881;52.438;16.744;2023-02-10T05:38:12;-1.70;82.70
76936;DHT22;65881;52.438;16.744;2023-02-10T05:40:38;-1.70;82.40
76936;DHT22;65881;52.438;16.744;2023-02-10T05:43:03;-1.70;82.30
76936;DHT22;65881;52.438;16.744;2023-02-10T05:45:29;-1.60;82.20
76936;DHT22;65881;52.438;16.744;2023-02-10T05:47:55;-1.60;82.10
76936;DHT22;65881;52.438;16.744;2023-02-10T05:50:20;-1.50;81.60
76936;DHT22;65881;52.438;16.744;2023-02-10T05:52:46;-1.50;81.50
76936;DHT22;65881;52.438;16.744;2023-02-10T05:55:12;-1.50;81.30
76936;DHT22;65881;52.438;16.744;2023-02-10T05:57:38;-1.50;81.50
76936;DHT22;65881;52.438;16.744;2023-02-10T06:00:04;-1.50;81.60
76936;DHT22;65881;52.438;16.744;2023-02-10T06:02:30;-1.50;81.40
76936;DHT22;65881;52.438;16.744;2023-02-10T06:04:56;-1.40;81.20
76936;DHT22;65881;52.438;16.744;2023-02-10T06:07:22;-1.50;81.40
76936;DHT22;65881;52.438;16.744;2023-02-10T06:09:47;-1.50;81.50
76936;DHT22;65881;52.438;16.744;2023-02-10T06:12:17;-1.50;81.60
76936;DHT22;65881;52.438;16.744;2023-02-10T06:14:43;-1.50;81.70
76936;DHT22;65881;52.438;16.744;2023-02-10T06:17:09;-1.50;81.90
76936;DHT22;65881;52.438;16.744;2023-02-10T06:19:39;-1.50;81.80
76936;DHT22;65881;52.438;16.744;2023-02-10T06:22:06;-1.50;81.90
76936;DHT22;65881;52.438;16.744;2023-02-10T06:24:32;-1.40;82.20
76936;DHT22;65881;52.438;16.744;2023-02-10T06:26:58;-1.40;82.40
76936;DHT22;65881;52.438;16.744;2023-02-10T06:29:24;-1.40;82.50
76936;DHT22;65881;52.438;16.744;2023-02-10T06:31:50;-1.30;82.60
76936;DHT22;65881;52.438;16.744;2023-02-10T06:34:16;-1.30;82.70
76936;DHT22;65881;52.438;16.744;2023-02-10T06:36:42;-1.20;82.70
76936;DHT22;65881;52.438;16.744;2023-02-10T06:39:07;-1.10;82.80
76936;DHT22;65881;52.438;16.744;2023-02-10T06:41:33;-1.10;82.80
76936;DHT22;65881;52.438;16.744;2023-02-10T06:43:59;-1.10;82.90
76936;DHT22;65881;52.438;16.744;2023-02-10T06:46:25;-1.10;82.90
76936;DHT22;65881;52.438;16.744;2023-02-10T06:48:51;-1.00;82.90
76936;DHT22;65881;52.438;16.744;2023-02-10T06:51:18;-1.00;83.20
76936;DHT22;65881;52.438;16.744;2023-02-10T06:53:44;-0.90;83.20
76936;DHT22;65881;52.438;16.744;2023-02-10T06:56:11;-0.90;83.00
76936;DHT22;65881;52.438;16.744;2023-02-10T06:58:37;-0.90;82.90
76936;DHT22;65881;52.438;16.744;2023-02-10T07:01:11;-0.80;83.00
76936;DHT22;65881;52.438;16.744;2023-02-10T07:03:37;-0.80;83.00
76936;DHT22;65881;52.438;16.744;2023-02-10T07:06:04;-0.70;83.10
76936;DHT22;65881;52.438;16.744;2023-02-10T07:08:30;-0.70;83.00
76936;DHT22;65881;52.438;16.744;2023-02-10T07:10:56;-0.70;82.90
76936;DHT22;65881;52.438;16.744;2023-02-10T07:13:23;-0.70;83.20
76936;DHT22;65881;52.438;16.744;2023-02-10T07:15:49;-0.70;83.10
76936;DHT22;65881;52.438;16.744;2023-02-10T07:18:15;-0.70;83.30
76936;DHT22;65881;52.438;16.744;2023-02-10T07:20:41;-0.70;83.30
76936;DHT22;65881;52.438;16.744;2023-02-10T07:23:07;-0.70;83.40
76936;DHT22;65881;52.438;16.744;2023-02-10T07:25:33;-0.60;83.50
76936;DHT22;65881;52.438;16.744;2023-02-10T07:27:59;-0.60;83.70
76936;DHT22;65881;52.438;16.744;2023-02-10T07:30:25;-0.60;83.70
76936;DHT22;65881;52.438;16.744;2023-02-10T07:32:51;-0.60;83.70
76936;DHT22;65881;52.438;16.744;2023-02-10T07:35:17;-0.60;83.70
76936;DHT22;65881;52.438;16.744;2023-02-10T07:37:43;-0.50;83.80
76936;DHT22;65881;52.438;16.744;2023-02-10T07:40:09;-0.50;83.70
76936;DHT22;65881;52.438;16.744;2023-02-10T07:42:35;-0.50;84.00
76936;DHT22;65881;52.438;16.744;2023-02-10T07:45:01;-0.40;83.70
76936;DHT22;65881;52.438;16.744;2023-02-10T07:47:27;-0.40;83.60
76936;DHT22;65881;52.438;16.744;2023-02-10T07:49:53;-0.30;83.50
76936;DHT22;65881;52.438;16.744;2023-02-10T07:52:20;-0.30;83.50
76936;DHT22;65881;52.438;16.744;2023-02-10T07:54:52;-0.30;83.50
76936;DHT22;65881;52.438;16.744;2023-02-10T07:57:21;-0.20;83.20
76936;DHT22;65881;52.438;16.744;2023-02-10T07:59:46;-0.20;83.40
76936;DHT22;65881;52.438;16.744;2023-02-10T08:02:12;-0.20;83.40
76936;DHT22;65881;52.438;16.744;2023-02-10T08:04:39;-0.20;83.50
76936;DHT22;65881;52.438;16.744;2023-02-10T08:07:06;-0.10;83.30
76936;DHT22;65881;52.438;16.744;2023-02-10T08:09:34;-0.10;83.20
76936;DHT22;65881;52.438;16.744;2023-02-10T08:12:00;-0.10;83.00
76936;DHT22;65881;52.438;16.744;2023-02-10T08:14:26;-0.10;83.20
76936;DHT22;65881;52.438;16.744;2023-02-10T08:17:01;-0.10;82.90
76936;DHT22;65881;52.438;16.744;2023-02-10T08:19:27;-0.10;82.60
76936;DHT22;65881;52.438;16.744;2023-02-10T08:21:53;-0.10;82.60
76936;DHT22;65881;52.438;16.744;2023-02-10T08:24:20;-0.10;82.90
76936;DHT22;65881;52.438;16.744;2023-02-10T08:26:45;-0.10;82.70
76936;DHT22;65881;52.438;16.744;2023-02-10T08:29:11;-0.10;82.80
76936;DHT22;65881;52.438;16.744;2023-02-10T08:31:50;-0.10;82.80
76936;DHT22;65881;52.438;16.744;2023-02-10T08:34:20;-0.10;82.90
76936;DHT22;65881;52.438;16.744;2023-02-10T08:36:46;-0.10;83.00
76936;DHT22;65881;52.438;16.744;2023-02-10T08:39:13;0.00;83.00
76936;DHT22;65881;52.438;16.744;2023-02-10T08:41:41;0.00;82.80
76936;DHT22;65881;52.438;16.744;2023-02-10T08:44:07;0.00;82.80
76936;DHT22;65881;52.438;16.744;2023-02-10T08:46:34;0.00;82.50
76936;DHT22;65881;52.438;16.744;2023-02-10T08:49:00;0.00;82.90
76936;DHT22;65881;52.438;16.744;2023-02-10T08:51:27;0.00;83.00
76936;DHT22;65881;52.438;16.744;2023-02-10T08:53:55;0.00;83.30
76936;DHT22;65881;52.438;16.744;2023-02-10T08:56:22;0.10;83.30
76936;DHT22;65881;52.438;16.744;2023-02-10T08:58:49;0.20;83.30
76936;DHT22;65881;52.438;16.744;2023-02-10T09:01:18;0.30;83.20
76936;DHT22;65881;52.438;16.744;2023-02-10T09:03:45;0.30;83.00
76936;DHT22;65881;52.438;16.744;2023-02-10T09:06:18;0.30;82.80
76936;DHT22;65881;52.438;16.744;2023-02-10T09:08:45;0.40;82.60
76936;DHT22;65881;52.438;16.744;2023-02-10T09:11:15;0.40;82.90
76936;DHT22;65881;52.438;16.744;2023-02-10T09:13:42;0.40;83.10
76936;DHT22;65881;52.438;16.744;2023-02-10T09:16:07;0.40;83.30
76936;DHT22;65881;52.438;16.744;2023-02-10T09:18:33;0.50;83.00
76936;DHT22;65881;52.438;16.744;2023-02-10T09:21:00;0.50;82.90
76936;DHT22;65881;52.438;16.744;2023-02-10T09:23:26;0.50;83.40
76936;DHT22;65881;52.438;16.744;2023-02-10T09:25:53;0.60;83.30
76936;DHT22;65881;52.438;16.744;2023-02-10T09:28:19;0.60;83.40
76936;DHT22;65881;52.438;16.744;2023-02-10T09:30:45;0.60;83.30
76936;DHT22;65881;52.438;16.744;2023-02-10T09:33:11;0.60;83.70
76936;DHT22;65881;52.438;16.744;2023-02-10T09:35:36;0.60;83.70
76936;DHT22;65881;52.438;16.744;2023-02-10T09:38:02;0.60;83.70
76936;DHT22;65881;52.438;16.744;2023-02-10T09:40:32;0.60;83.80
76936;DHT22;65881;52.438;16.744;2023-02-10T09:43:03;0.60;84.10
76936;DHT22;65881;52.438;16.744;2023-02-10T09:45:35;0.60;84.20
76936;DHT22;65881;52.438;16.744;2023-02-10T09:53:47;0.60;84.10
76936;DHT22;65881;52.438;16.744;2023-02-10T09:56:17;0.60;84.10
76936;DHT22;65881;52.438;16.744;2023-02-10T09:58:48;0.60;84.00
76936;DHT22;65881;52.438;16.744;2023-02-10T10:01:30;0.60;84.10
76936;DHT22;65881;52.438;16.744;2023-02-10T10:06:38;0.60;84.30
76936;DHT22;65881;52.438;16.744;2023-02-10T10:11:51;0.60;84.60
76936;DHT22;65881;52.438;16.744;2023-02-10T10:14:27;0.60;84.20
76936;DHT22;65881;52.438;16.744;2023-02-10T10:22:31;0.70;84.50
76936;DHT22;65881;52.438;16.744;2023-02-10T10:30:46;0.70;84.50
76936;DHT22;65881;52.438;16.744;2023-02-10T10:36:38;0.80;85.00
76936;DHT22;65881;52.438;16.744;2023-02-10T10:41:49;1.10;84.40
76936;DHT22;65881;52.438;16.744;2023-02-10T10:44:20;1.10;84.10
76936;DHT22;65881;52.438;16.744;2023-02-10T10:47:12;1.10;83.70
76936;DHT22;65881;52.438;16.744;2023-02-10T10:49:39;1.10;84.10
76936;DHT22;65881;52.438;16.744;2023-02-10T10:52:41;1.00;84.20
76936;DHT22;65881;52.438;16.744;2023-02-10T10:58:03;1.00;84.80
76936;DHT22;65881;52.438;16.744;2023-02-10T11:00:33;1.10;85.10
76936;DHT22;65881;52.438;16.744;2023-02-10T11:03:04;1.20;84.50
76936;DHT22;65881;52.438;16.744;2023-02-10T11:05:37;1.40;84.70
76936;DHT22;65881;52.438;16.744;2023-02-10T11:08:05;1.40;84.30
76936;DHT22;65881;52.438;16.744;2023-02-10T11:13:04;1.50;83.50
76936;DHT22;65881;52.438;16.744;2023-02-10T11:15:41;1.40;83.50
76936;DHT22;65881;52.438;16.744;2023-02-10T11:18:17;1.50;84.00
76936;DHT22;65881;52.438;16.744;2023-02-10T11:20:53;1.60;83.70
76936;DHT22;65881;52.438;16.744;2023-02-10T11:23:19;1.70;83.50
76936;DHT22;65881;52.438;16.744;2023-02-10T11:25:56;1.80;83.20
76936;DHT22;65881;52.438;16.744;2023-02-10T11:28:25;1.90;83.10
76936;DHT22;65881;52.438;16.744;2023-02-10T11:31:15;1.90;83.20
76936;DHT22;65881;52.438;16.744;2023-02-10T11:33:58;1.90;82.80
76936;DHT22;65881;52.438;16.744;2023-02-10T11:36:38;2.00;82.90
76936;DHT22;65881;52.438;16.744;2023-02-10T11:39:14;2.10;82.90
76936;DHT22;65881;52.438;16.744;2023-02-10T11:41:41;2.30;82.70
76936;DHT22;65881;52.438;16.744;2023-02-10T11:44:27;2.50;81.90
76936;DHT22;65881;52.438;16.744;2023-02-10T11:47:14;2.60;81.40
76936;DHT22;65881;52.438;16.744;2023-02-10T11:49:46;2.80;81.20
76936;DHT22;65881;52.438;16.744;2023-02-10T11:52:13;2.90;80.10
76936;DHT22;65881;52.438;16.744;2023-02-10T11:54:40;2.70;80.40
76936;DHT22;65881;52.438;16.744;2023-02-10T12:00:34;2.60;81.20
76936;DHT22;65881;52.438;16.744;2023-02-10T12:03:08;2.80;81.00
76936;DHT22;65881;52.438;16.744;2023-02-10T12:06:04;2.90;80.50
76936;DHT22;65881;52.438;16.744;2023-02-10T12:08:42;2.90;79.70
76936;DHT22;65881;52.438;16.744;2023-02-10T12:36:44;2.80;80.30
76936;DHT22;65881;52.438;16.744;2023-02-10T12:50:46;2.80;80.70
76936;DHT22;65881;52.438;16.744;2023-02-10T12:53:18;2.80;80.50
76936;DHT22;65881;52.438;16.744;2023-02-10T12:58:45;2.80;80.50
76936;DHT22;65881;52.438;16.744;2023-02-10T13:01:31;2.70;80.30
76936;DHT22;65881;52.438;16.744;2023-02-10T13:04:28;2.60;80.50
76936;DHT22;65881;52.438;16.744;2023-02-10T13:07:02;2.60;80.80
76936;DHT22;65881;52.438;16.744;2023-02-10T13:09:39;2.50;81.10
76936;DHT22;65881;52.438;16.744;2023-02-10T13:12:21;2.60;81.10
76936;DHT22;65881;52.438;16.744;2023-02-10T13:14:53;2.60;81.10
76936;DHT22;65881;52.438;16.744;2023-02-10T13:17:23;2.60;81.40
76936;DHT22;65881;52.438;16.744;2023-02-10T13:20:08;2.70;81.30
76936;DHT22;65881;52.438;16.744;2023-02-10T13:25:25;2.70;81.40
76936;DHT22;65881;52.438;16.744;2023-02-10T13:31:00;2.80;81.50
76936;DHT22;65881;52.438;16.744;2023-02-10T13:33:53;2.80;81.50
76936;DHT22;65881;52.438;16.744;2023-02-10T13:36:26;2.80;81.50
76936;DHT22;65881;52.438;16.744;2023-02-10T13:39:06;2.90;81.10
76936;DHT22;65881;52.438;16.744;2023-02-10T13:41:42;2.90;80.90
76936;DHT22;65881;52.438;16.744;2023-02-10T13:44:31;2.90;80.80
76936;DHT22;65881;52.438;16.744;2023-02-10T13:47:35;2.90;80.40
76936;DHT22;65881;52.438;16.744;2023-02-10T13:59:05;2.80;80.70
76936;DHT22;65881;52.438;16.744;2023-02-10T14:02:21;2.70;80.80
76936;DHT22;65881;52.438;16.744;2023-02-10T14:04:55;2.70;80.80
76936;DHT22;65881;52.438;16.744;2023-02-10T14:15:26;2.70;81.10
76936;DHT22;65881;52.438;16.744;2023-02-10T14:18:03;2.80;81.00
76936;DHT22;65881;52.438;16.744;2023-02-10T14:20:30;2.80;81.10
76936;DHT22;65881;52.438;16.744;2023-02-10T14:22:57;2.80;81.40
76936;DHT22;65881;52.438;16.744;2023-02-10T14:25:37;2.80;81.40
76936;DHT22;65881;52.438;16.744;2023-02-10T14:28:11;2.80;81.40
76936;DHT22;65881;52.438;16.744;2023-02-10T14:30:45;2.80;81.60
76936;DHT22;65881;52.438;16.744;2023-02-10T14:33:29;2.80;81.40
76936;DHT22;65881;52.438;16.744;2023-02-10T14:35:59;2.80;81.60
76936;DHT22;65881;52.438;16.744;2023-02-10T14:38:28;2.80;81.70
76936;DHT22;65881;52.438;16.744;2023-02-10T14:40:56;2.80;81.60
76936;DHT22;65881;52.438;16.744;2023-02-10T14:43:30;2.70;81.50
76936;DHT22;65881;52.438;16.744;2023-02-10T14:45:58;2.80;81.20
76936;DHT22;65881;52.438;16.744;2023-02-10T14:48:26;2.80;81.10
76936;DHT22;65881;52.438;16.744;2023-02-10T14:51:04;2.80;81.00
76936;DHT22;65881;52.438;16.744;2023-02-10T14:53:33;2.80;81.00
76936;DHT22;65881;52.438;16.744;2023-02-10T14:56:03;2.80;81.00
76936;DHT22;65881;52.438;16.744;2023-02-10T14:58:30;2.80;81.10
76936;DHT22;65881;52.438;16.744;2023-02-10T15:03:30;2.80;81.20
76936;DHT22;65881;52.438;16.744;2023-02-10T15:05:56;2.80;81.20
76936;DHT22;65881;52.438;16.744;2023-02-10T15:08:40;2.80;81.10
76936;DHT22;65881;52.438;16.744;2023-02-10T15:11:13;2.80;81.00
76936;DHT22;65881;52.438;16.744;2023-02-10T15:13:46;2.80;81.20
76936;DHT22;65881;52.438;16.744;2023-02-10T15:16:15;2.80;81.20
76936;DHT22;65881;52.438;16.744;2023-02-10T15:18:49;2.80;81.40
76936;DHT22;65881;52.438;16.744;2023-02-10T15:21:34;2.80;81.30
76936;DHT22;65881;52.438;16.744;2023-02-10T15:24:05;2.80;81.40
76936;DHT22;65881;52.438;16.744;2023-02-10T15:26:47;2.80;81.40
76936;DHT22;65881;52.438;16.744;2023-02-10T15:29:17;2.80;81.30
76936;DHT22;65881;52.438;16.744;2023-02-10T15:31:57;2.70;81.40
76936;DHT22;65881;52.438;16.744;2023-02-10T15:34:28;2.70;81.20
76936;DHT22;65881;52.438;16.744;2023-02-10T15:36:56;2.70;81.40
76936;DHT22;65881;52.438;16.744;2023-02-10T15:39:26;2.60;81.50
76936;DHT22;65881;52.438;16.744;2023-02-10T15:46:52;2.50;81.50
76936;DHT22;65881;52.438;16.744;2023-02-10T15:49:20;2.40;81.50
76936;DHT22;65881;52.438;16.744;2023-02-10T15:51:54;2.40;81.70
76936;DHT22;65881;52.438;16.744;2023-02-10T15:54:25;2.40;81.90
76936;DHT22;65881;52.438;16.744;2023-02-10T15:57:05;2.30;82.00
76936;DHT22;65881;52.438;16.744;2023-02-10T15:59:35;2.30;82.20
76936;DHT22;65881;52.438;16.744;2023-02-10T16:02:02;2.30;82.20
76936;DHT22;65881;52.438;16.744;2023-02-10T16:04:31;2.30;82.30
76936;DHT22;65881;52.438;16.744;2023-02-10T16:06:58;2.30;82.70
76936;DHT22;65881;52.438;16.744;2023-02-10T16:09:25;2.40;83.20
76936;DHT22;65881;52.438;16.744;2023-02-10T16:11:58;2.30;82.40
76936;DHT22;65881;52.438;16.744;2023-02-10T16:14:25;2.30;82.70
76936;DHT22;65881;52.438;16.744;2023-02-10T16:16:53;2.30;82.90
76936;DHT22;65881;52.438;16.744;2023-02-10T16:19:21;2.30;82.90
76936;DHT22;65881;52.438;16.744;2023-02-10T16:21:47;2.30;83.10
76936;DHT22;65881;52.438;16.744;2023-02-10T16:24:16;2.30;83.10
76936;DHT22;65881;52.438;16.744;2023-02-10T16:26:43;2.30;83.10
76936;DHT22;65881;52.438;16.744;2023-02-10T16:29:21;2.30;83.30
76936;DHT22;65881;52.438;16.744;2023-02-10T16:31:47;2.30;83.20
76936;DHT22;65881;52.438;16.744;2023-02-10T16:34:13;2.40;83.20
76936;DHT22;65881;52.438;16.744;2023-02-10T16:36:39;2.30;83.30
76936;DHT22;65881;52.438;16.744;2023-02-10T16:39:06;2.30;83.60
76936;DHT22;65881;52.438;16.744;2023-02-10T16:41:36;2.40;83.40
76936;DHT22;65881;52.438;16.744;2023-02-10T16:44:01;2.40;83.30
76936;DHT22;65881;52.438;16.744;2023-02-10T16:46:27;2.40;83.20
76936;DHT22;65881;52.438;16.744;2023-02-10T16:48:53;2.50;83.20
76936;DHT22;65881;52.438;16.744;2023-02-10T16:51:18;2.50;83.00
76936;DHT22;65881;52.438;16.744;2023-02-10T16:53:44;2.50;82.80
76936;DHT22;65881;52.438;16.744;2023-02-10T16:56:16;2.50;83.00
76936;DHT22;65881;52.438;16.744;2023-02-10T16:58:49;2.50;83.10
76936;DHT22;65881;52.438;16.744;2023-02-10T17:01:15;2.50;83.00
76936;DHT22;65881;52.438;16.744;2023-02-10T17:03:42;2.50;83.20
76936;DHT22;65881;52.438;16.744;2023-02-10T17:06:15;2.50;83.20
76936;DHT22;65881;52.438;16.744;2023-02-10T17:08:45;2.50;83.10
76936;DHT22;65881;52.438;16.744;2023-02-10T17:11:11;2.40;83.20
76936;DHT22;65881;52.438;16.744;2023-02-10T17:13:37;2.50;83.00
76936;DHT22;65881;52.438;16.744;2023-02-10T17:16:03;2.50;83.10
76936;DHT22;65881;52.438;16.744;2023-02-10T17:18:29;2.40;83.20
76936;DHT22;65881;52.438;16.744;2023-02-10T17:20:55;2.40;83.20
76936;DHT22;65881;52.438;16.744;2023-02-10T17:23:20;2.40;83.30
76936;DHT22;65881;52.438;16.744;2023-02-10T17:25:47;2.40;83.30
76936;DHT22;65881;52.438;16.744;2023-02-10T17:28:14;2.40;83.50
76936;DHT22;65881;52.438;16.744;2023-02-10T17:30:42;2.40;83.50
76936;DHT22;65881;52.438;16.744;2023-02-10T17:33:23;2.40;83.60
76936;DHT22;65881;52.438;16.744;2023-02-10T17:35:49;2.40;83.60
76936;DHT22;65881;52.438;16.744;2023-02-10T17:38:15;2.40;83.50
76936;DHT22;65881;52.438;16.744;2023-02-10T17:41:00;2.30;83.80
76936;DHT22;65881;52.438;16.744;2023-02-10T17:43:25;2.30;83.70
76936;DHT22;65881;52.438;16.744;2023-02-10T17:45:51;2.30;83.70
76936;DHT22;65881;52.438;16.744;2023-02-10T17:48:17;2.40;83.70
76936;DHT22;65881;52.438;16.744;2023-02-10T17:50:43;2.30;83.70